Pagina principale
METAR-TAF:

METAR-TAF

Aeroporti :

Messina, Italia

latitudine: 38-12N, longitudine: 015-33E, altezza: 59 m

Osservazione

Il bollettino è stato emesso 57 minuti fa, alle 10:55 UTC
Vento 6 kt da nord-est
Temperature 10°C
Umidità 71%
Pressione 1023 hPa
Visibilità 10 km o più
Nuvoloso ad un'altezza di 4000 ft

METAR: LICF 091055Z 05006KT 9999 BKN040 10/05 Q1023 RMK OVC OVC090 QUK 3 QUL 1 NE VIS MAR 16 KM MON LIB NC VIS MIN 9999

Ora: 12:52 (11:52 UTC)


TAF: mancante

Osservazioni e previsioni meteorologiche di più di 4000 aeroporti (messaggi METAR e TAF).

Le stazioni disponibili sono rappresentate dai dischi gialli e rossi sulla carta.

Puntare il mouse per vedere il nome della stazione.

Clicca sopra per visualizzare le osservazioni e previsioni meteorologiche.

Per cambiare la mappa : fare clic sui pulsanti verdi con una croce nera per ingrandire, il pulsante verde con un trattino per diminuire, o sulla freccia verde per le mappe adiacenti.


METAR-TAF: